Time;durP1;ratioP1;P1;durP2;ratioP2;P2;SDS_P1;SDS_P2;PMS_P1;PMS_P2;Temp;Humidity;BMP_temperature;BMP_pressure;BME280_temperature;BME280_humidity;BME280_pressure;Samples;Min_cycle;Max_cycle;Signal;HPM_P1;HPM_P2
2023/03/06 00:00:50;;;;;;;;;;;;;;;;;;5095095;28;1977;-70
2023/03/06 00:03:15;;;;;;;;;;;;;;;;;;5113194;28;835;-70
2023/03/06 00:05:41;;;;;;;;;;;;;;;;;;5113103;28;792;-70
2023/03/06 00:08:06;;;;;;;;;;;;;;;;;;5112546;28;840;-70
2023/03/06 00:10:32;;;;;;;;;;;;;;;;;;5111805;28;1276;-70
2023/03/06 00:12:59;;;;;;;;;;;;;;;;;;5112720;28;864;-70
2023/03/06 00:15:24;;;;;;;;;;;;;;;;;;5099528;28;1131;-70
2023/03/06 00:17:50;;;;;;;;;;;;;;;;;;5093242;28;1152;-70
2023/03/06 00:20:16;;;;;;;;;;;;;;;;;;5110719;28;1907;-70
2023/03/06 00:22:42;;;;;;;;;;;;;;;;;;5111780;28;1240;-70
2023/03/06 00:25:11;;;;;;;;;;;;;;;;;;5111334;28;1174;-70
2023/03/06 00:27:37;;;;;;;;;;;;;;;;;;5112999;28;860;-70
2023/03/06 00:30:02;;;;;;;;;;;;;;;;;;5111581;28;1336;-70
2023/03/06 00:32:28;;;;;;;;;;;;;;;;;;5111519;28;1272;-70
2023/03/06 00:34:54;;;;;;;;;;;;;;;;;;5112511;28;970;-70
2023/03/06 00:37:20;;;;;;;;;;;;;;;;;;5113315;28;978;-70
2023/03/06 00:39:45;;;;;;;;;;;;;;;;;;5111402;28;1906;-70
2023/03/06 00:42:11;;;;;;;;;;;;;;;;;;5113261;28;844;-70
2023/03/06 00:44:36;;;;;;;;;;;;;;;;;;5111468;28;894;-70
2023/03/06 00:47:02;;;;;;;;;;;;;;;;;;5111975;28;797;-70
2023/03/06 00:49:27;;;;;;;;;;;;;;;;;;5094791;28;1198;-70
2023/03/06 00:51:52;;;;;;;;;;;;;;;;;;5094745;28;1087;-70
2023/03/06 00:54:18;;;;;;;;;;;;;;;;;;5112438;28;1075;-70
2023/03/06 00:56:43;;;;;;;;;;;;;;;;;;5112596;28;1053;-70
2023/03/06 00:59:09;;;;;;;;;;;;;;;;;;5111111;28;1162;-69
2023/03/06 01:01:34;;;;;;;;;;;;;;;;;;5111574;28;1963;-70
2023/03/06 01:03:59;;;;;;;;;;;;;;;;;;5112556;28;867;-69
2023/03/06 01:06:26;;;;;;;;;;;;;;;;;;5094346;28;1133;-69
2023/03/06 01:08:51;;;;;;;;;;;;;;;;;;5112491;28;883;-69
2023/03/06 01:11:16;;;;;;;;;;;;;;;;;;5094285;28;1140;-69
2023/03/06 01:13:43;;;;;;;;;;;;;;;;;;5110678;28;1209;-69
2023/03/06 01:16:10;;;;;;;;;;;;;;;;;;5111200;28;1166;-69
2023/03/06 01:18:35;;;;;;;;;;;;;;;;;;5112636;28;832;-70
2023/03/06 01:21:00;;;;;;;;;;;;;;;;;;5096994;28;1966;-70
2023/03/06 01:23:26;;;;;;;;;;;;;;;;;;5115691;28;1182;-70
2023/03/06 01:25:51;;;;;;;;;;;;;;;;;;5113288;28;832;-70
2023/03/06 01:28:16;;;;;;;;;;;;;;;;;;5114770;28;801;-70
2023/03/06 01:30:41;;;;;;;;;;;;;;;;;;5115782;28;883;-70
2023/03/06 01:33:07;;;;;;;;;;;;;;;;;;5114399;28;1174;-70
2023/03/06 01:35:32;;;;;;;;;;;;;;;;;;5116217;28;840;-70
2023/03/06 01:37:58;;;;;;;;;;;;;;;;;;5115945;28;900;-70
2023/03/06 01:40:23;;;;;;;;;;;;;;;;;;5097210;28;1910;-70
2023/03/06 01:42:49;;;;;;;;;;;;;;;;;;5115749;28;782;-70
2023/03/06 01:45:14;;;;;;;;;;;;;;;;;;5114267;28;1129;-70
2023/03/06 01:47:40;;;;;;;;;;;;;;;;;;5115307;27;879;-70
2023/03/06 01:50:07;;;;;;;;;;;;;;;;;;5114090;28;1281;-70
2023/03/06 01:52:35;;;;;;;;;;;;;;;;;;5115935;27;936;-70
2023/03/06 01:55:03;;;;;;;;;;;;;;;;;;5113918;28;1306;-70
2023/03/06 01:57:33;;;;;;;;;;;;;;;;;;5115371;28;906;-70
2023/03/06 02:00:10;;;;;;;;;;;;;;;;;;5113687;28;1960;-70
2023/03/06 02:02:35;;;;;;;;;;;;;;;;;;5114207;28;1099;-70
2023/03/06 02:05:02;;;;;;;;;;;;;;;;;;5097058;28;1189;-70
2023/03/06 02:07:28;;;;;;;;;;;;;;;;;;5115587;28;942;-70
2023/03/06 02:09:53;;;;;;;;;;;;;;;;;;5113967;28;1225;-70
2023/03/06 02:12:19;;;;;;;;;;;;;;;;;;5113610;28;1161;-70
2023/03/06 02:14:45;;;;;;;;;;;;;;;;;;5113588;28;1193;-70
2023/03/06 02:17:12;;;;;;;;;;;;;;;;;;5114936;28;836;-70
2023/03/06 02:19:59;;;;;;;;;;;;;;;;;;5114704;28;1909;-70
2023/03/06 02:22:28;;;;;;;;;;;;;;;;;;5113083;28;1253;-70
2023/03/06 02:24:57;;;;;;;;;;;;;;;;;;5114765;28;911;-70
2023/03/06 02:27:23;;;;;;;;;;;;;;;;;;5114888;28;911;-70
2023/03/06 02:29:49;;;;;;;;;;;;;;;;;;5114537;28;887;-70
2023/03/06 02:32:14;;;;;;;;;;;;;;;;;;5113534;28;963;-70
2023/03/06 02:34:39;;;;;;;;;;;;;;;;;;5114046;28;950;-70
2023/03/06 02:37:08;;;;;;;;;;;;;;;;;;5113785;28;1194;-69
2023/03/06 02:39:52;;;;;;;;;;;;;;;;;;5096383;28;1914;-70
2023/03/06 02:42:23;;;;;;;;;;;;;;;;;;5113615;28;1157;-70
2023/03/06 02:44:50;;;;;;;;;;;;;;;;;;5113679;28;1173;-70
2023/03/06 02:47:15;;;;;;;;;;;;;;;;;;5114967;28;884;-70
2023/03/06 02:49:40;;;;;;;;;;;;;;;;;;5113194;28;1433;-70
2023/03/06 02:52:06;;;;;;;;;;;;;;;;;;5095929;28;1267;-70
2023/03/06 02:54:32;;;;;;;;;;;;;;;;;;5096334;28;1474;-70
2023/03/06 02:56:57;;;;;;;;;;;;;;;;;;5113045;28;1265;-70
2023/03/06 02:59:22;;;;;;;;;;;;;;;;;;5095934;28;1909;-70
2023/03/06 03:01:47;;;;;;;;;;;;;;;;;;5114492;28;1018;-70
2023/03/06 03:04:13;;;;;;;;;;;;;;;;;;5112339;28;1133;-70
2023/03/06 03:06:38;;;;;;;;;;;;;;;;;;5112610;28;848;-69
2023/03/06 03:09:03;;;;;;;;;;;;;;;;;;5095773;28;1261;-70
2023/03/06 03:11:29;;;;;;;;;;;;;;;;;;5112396;28;872;-70
2023/03/06 03:13:54;;;;;;;;;;;;;;;;;;5113863;27;857;-70
2023/03/06 03:16:19;;;;;;;;;;;;;;;;;;5112679;28;824;-70
2023/03/06 03:18:46;;;;;;;;;;;;;;;;;;5113664;28;868;-70
2023/03/06 03:21:12;;;;;;;;;;;;;;;;;;5112190;28;1971;-70
2023/03/06 03:23:37;;;;;;;;;;;;;;;;;;5113799;28;919;-70
2023/03/06 03:26:07;;;;;;;;;;;;;;;;;;5112629;28;1111;-70
2023/03/06 03:28:32;;;;;;;;;;;;;;;;;;5112091;28;1228;-70
2023/03/06 03:31:01;;;;;;;;;;;;;;;;;;5113024;28;901;-70
2023/03/06 03:33:26;;;;;;;;;;;;;;;;;;5112774;28;896;-70
2023/03/06 03:35:55;;;;;;;;;;;;;;;;;;5111585;28;927;-69
2023/03/06 03:38:21;;;;;;;;;;;;;;;;;;5112996;28;1073;-70
2023/03/06 03:40:46;;;;;;;;;;;;;;;;;;5113130;28;1942;-70
2023/03/06 03:43:11;;;;;;;;;;;;;;;;;;5093871;28;1292;-70
2023/03/06 03:45:38;;;;;;;;;;;;;;;;;;5112755;28;823;-70
2023/03/06 03:48:03;;;;;;;;;;;;;;;;;;5111745;28;1300;-70
2023/03/06 03:50:29;;;;;;;;;;;;;;;;;;5094928;28;1265;-70
2023/03/06 03:52:54;;;;;;;;;;;;;;;;;;5112499;28;1005;-70
2023/03/06 03:55:19;;;;;;;;;;;;;;;;;;5112526;28;1076;-70
2023/03/06 03:57:44;;;;;;;;;;;;;;;;;;5112444;28;812;-70
2023/03/06 04:00:14;;;;;;;;;;;;;;;;;;5112369;28;1905;-70
2023/03/06 04:02:40;;;;;;;;;;;;;;;;;;5111347;28;1305;-70
2023/03/06 04:05:05;;;;;;;;;;;;;;;;;;5112325;28;903;-70
2023/03/06 04:07:31;;;;;;;;;;;;;;;;;;5110979;28;859;-70
2023/03/06 04:09:56;;;;;;;;;;;;;;;;;;5110992;28;1154;-70
2023/03/06 04:12:21;;;;;;;;;;;;;;;;;;5112853;28;851;-70
2023/03/06 04:14:46;;;;;;;;;;;;;;;;;;5112590;28;939;-69
2023/03/06 04:17:12;;;;;;;;;;;;;;;;;;5093852;28;1260;-70
2023/03/06 04:19:37;;;;;;;;;;;;;;;;;;5111421;28;1906;-70
2023/03/06 04:22:02;;;;;;;;;;;;;;;;;;5112711;28;872;-70
2023/03/06 04:24:27;;;;;;;;;;;;;;;;;;5110808;28;979;-70
2023/03/06 04:26:52;;;;;;;;;;;;;;;;;;5112654;28;974;-70
2023/03/06 04:29:18;;;;;;;;;;;;;;;;;;5111291;28;892;-70
2023/03/06 04:31:43;;;;;;;;;;;;;;;;;;5112537;28;915;-70
2023/03/06 04:34:08;;;;;;;;;;;;;;;;;;5111171;28;883;-70
2023/03/06 04:36:33;;;;;;;;;;;;;;;;;;5094213;28;1174;-70
2023/03/06 04:38:59;;;;;;;;;;;;;;;;;;5111089;28;1154;-70
2023/03/06 04:41:25;;;;;;;;;;;;;;;;;;5112093;28;1945;-70
2023/03/06 04:43:50;;;;;;;;;;;;;;;;;;5093862;28;1417;-70
2023/03/06 04:46:16;;;;;;;;;;;;;;;;;;5111191;28;1227;-70
2023/03/06 04:48:41;;;;;;;;;;;;;;;;;;5111320;28;947;-70
2023/03/06 04:51:06;;;;;;;;;;;;;;;;;;5110648;28;1197;-70
2023/03/06 04:53:32;;;;;;;;;;;;;;;;;;5112660;28;895;-70
2023/03/06 04:55:57;;;;;;;;;;;;;;;;;;5115849;28;1072;-70
2023/03/06 04:58:23;;;;;;;;;;;;;;;;;;5098069;28;1343;-70
2023/03/06 05:00:48;;;;;;;;;;;;;;;;;;5115428;28;1925;-70
2023/03/06 05:03:13;;;;;;;;;;;;;;;;;;5115377;28;1205;-70
2023/03/06 05:05:39;;;;;;;;;;;;;;;;;;5114976;28;1340;-70
2023/03/06 05:08:04;;;;;;;;;;;;;;;;;;5116702;28;971;-70
2023/03/06 05:10:30;;;;;;;;;;;;;;;;;;5116234;28;861;-70
2023/03/06 05:12:55;;;;;;;;;;;;;;;;;;5115768;28;884;-70
2023/03/06 05:15:21;;;;;;;;;;;;;;;;;;5114798;28;828;-70
2023/03/06 05:17:46;;;;;;;;;;;;;;;;;;5116019;28;1054;-70
2023/03/06 05:20:12;;;;;;;;;;;;;;;;;;5116279;28;1918;-70
2023/03/06 05:22:37;;;;;;;;;;;;;;;;;;5114561;28;911;-70
2023/03/06 05:25:03;;;;;;;;;;;;;;;;;;5115019;28;1043;-70
2023/03/06 05:27:29;;;;;;;;;;;;;;;;;;5114761;28;1311;-70
2023/03/06 05:29:54;;;;;;;;;;;;;;;;;;5115915;28;836;-70
2023/03/06 05:32:20;;;;;;;;;;;;;;;;;;5116528;28;887;-70
2023/03/06 05:34:45;;;;;;;;;;;;;;;;;;5114903;28;832;-70
2023/03/06 05:37:10;;;;;;;;;;;;;;;;;;5115901;28;966;-71
2023/03/06 05:39:36;;;;;;;;;;;;;;;;;;5115243;28;1898;-70
2023/03/06 05:42:01;;;;;;;;;;;;;;;;;;5114271;28;1148;-70
2023/03/06 05:44:33;;;;;;;;;;;;;;;;;;5113558;28;1179;-70
2023/03/06 05:46:59;;;;;;;;;;;;;;;;;;5115309;28;812;-70
2023/03/06 05:49:24;;;;;;;;;;;;;;;;;;5115563;28;879;-70
2023/03/06 05:51:50;;;;;;;;;;;;;;;;;;5115555;28;1016;-70
2023/03/06 05:54:15;;;;;;;;;;;;;;;;;;5114436;28;883;-70
2023/03/06 05:56:40;;;;;;;;;;;;;;;;;;5113890;28;1201;-70
2023/03/06 05:59:06;;;;;;;;;;;;;;;;;;5114177;28;1095;-69
2023/03/06 06:01:31;;;;;;;;;;;;;;;;;;5114007;28;1901;-70
2023/03/06 06:03:57;;;;;;;;;;;;;;;;;;5113834;28;1103;-70
2023/03/06 06:06:22;;;;;;;;;;;;;;;;;;5113718;28;1134;-70
2023/03/06 06:08:47;;;;;;;;;;;;;;;;;;5113856;28;1202;-70
2023/03/06 06:11:13;;;;;;;;;;;;;;;;;;5096904;28;1111;-71
2023/03/06 06:13:39;;;;;;;;;;;;;;;;;;5115572;28;915;-70
2023/03/06 06:16:11;;;;;;;;;;;;;;;;;;5115232;28;852;-70
2023/03/06 06:18:37;;;;;;;;;;;;;;;;;;5115111;28;1005;-70
2023/03/06 06:21:05;;;;;;;;;;;;;;;;;;5115249;28;1905;-70
2023/03/06 06:23:31;;;;;;;;;;;;;;;;;;5114879;28;856;-70
2023/03/06 06:25:58;;;;;;;;;;;;;;;;;;5114435;28;923;-70
2023/03/06 06:28:23;;;;;;;;;;;;;;;;;;5113291;28;1000;-70
2023/03/06 06:30:49;;;;;;;;;;;;;;;;;;5113030;28;1213;-70
2023/03/06 06:33:14;;;;;;;;;;;;;;;;;;5114452;28;816;-70
2023/03/06 06:35:40;;;;;;;;;;;;;;;;;;5113091;28;1158;-70
2023/03/06 06:38:05;;;;;;;;;;;;;;;;;;5095935;28;1033;-70
2023/03/06 06:40:30;;;;;;;;;;;;;;;;;;5114619;28;1905;-70
2023/03/06 06:42:55;;;;;;;;;;;;;;;;;;5112871;28;872;-70
2023/03/06 06:45:21;;;;;;;;;;;;;;;;;;5096102;28;1297;-70
2023/03/06 06:47:48;;;;;;;;;;;;;;;;;;5114227;28;1200;-70
2023/03/06 06:50:14;;;;;;;;;;;;;;;;;;5112421;28;1375;-70
2023/03/06 06:52:39;;;;;;;;;;;;;;;;;;5113730;28;896;-70
2023/03/06 06:55:04;;;;;;;;;;;;;;;;;;5112317;28;1425;-70
2023/03/06 06:57:29;;;;;;;;;;;;;;;;;;5112647;28;911;-70
2023/03/06 06:59:55;;;;;;;;;;;;;;;;;;5113763;28;1905;-71
2023/03/06 07:02:20;;;;;;;;;;;;;;;;;;5112645;28;1236;-71
2023/03/06 07:04:45;;;;;;;;;;;;;;;;;;5114161;28;836;-71
2023/03/06 07:07:11;;;;;;;;;;;;;;;;;;5114190;28;745;-71
2023/03/06 07:09:38;;;;;;;;;;;;;;;;;;5113513;28;828;-71
2023/03/06 07:12:04;;;;;;;;;;;;;;;;;;5114069;28;923;-71
2023/03/06 07:14:29;;;;;;;;;;;;;;;;;;5113760;28;876;-71
2023/03/06 07:16:54;;;;;;;;;;;;;;;;;;5112615;28;872;-71
2023/03/06 07:19:19;;;;;;;;;;;;;;;;;;5112262;28;1403;-71
2023/03/06 07:21:45;;;;;;;;;;;;;;;;;;5113379;28;2339;-71
2023/03/06 07:24:10;;;;;;;;;;;;;;;;;;5113893;28;867;-71
2023/03/06 07:26:35;;;;;;;;;;;;;;;;;;5112772;28;1150;-71
2023/03/06 07:29:01;;;;;;;;;;;;;;;;;;5113817;28;821;-71
2023/03/06 07:31:27;;;;;;;;;;;;;;;;;;5113545;28;990;-71
2023/03/06 07:33:53;;;;;;;;;;;;;;;;;;5111817;28;824;-72
2023/03/06 07:36:18;;;;;;;;;;;;;;;;;;5113603;28;891;-71
2023/03/06 07:38:43;;;;;;;;;;;;;;;;;;5111949;28;915;-72
2023/03/06 07:41:12;;;;;;;;;;;;;;;;;;5112057;28;1889;-71
2023/03/06 07:43:41;;;;;;;;;;;;;;;;;;5112115;28;1241;-71
2023/03/06 07:46:07;;;;;;;;;;;;;;;;;;5113601;28;980;-72
2023/03/06 07:48:33;;;;;;;;;;;;;;;;;;5113552;28;903;-71
2023/03/06 07:51:04;;;;;;;;;;;;;;;;;;5094441;28;1222;-71
2023/03/06 07:53:29;;;;;;;;;;;;;;;;;;5113217;28;1195;-71
2023/03/06 07:55:55;;;;;;;;;;;;;;;;;;5111719;28;1360;-71
2023/03/06 07:58:20;;;;;;;;;;;;;;;;;;5111970;28;875;-71
2023/03/06 08:00:45;;;;;;;;;;;;;;;;;;5094918;28;1990;-71
2023/03/06 08:03:11;;;;;;;;;;;;;;;;;;5112768;28;812;-71
2023/03/06 08:05:37;;;;;;;;;;;;;;;;;;5113124;28;852;-71
2023/03/06 08:08:02;;;;;;;;;;;;;;;;;;5111771;28;1474;-71
2023/03/06 08:10:27;;;;;;;;;;;;;;;;;;5112821;28;1203;-71
2023/03/06 08:12:53;;;;;;;;;;;;;;;;;;5111499;28;879;-71
2023/03/06 08:15:18;;;;;;;;;;;;;;;;;;5113187;28;824;-71
2023/03/06 08:17:43;;;;;;;;;;;;;;;;;;5113358;28;892;-71
2023/03/06 08:20:09;;;;;;;;;;;;;;;;;;5112619;28;1901;-70
2023/03/06 08:22:35;;;;;;;;;;;;;;;;;;5112603;28;994;-71
2023/03/06 08:25:01;;;;;;;;;;;;;;;;;;5111824;28;880;-71
2023/03/06 08:27:26;;;;;;;;;;;;;;;;;;5104258;28;1284;-71
2023/03/06 08:29:51;;;;;;;;;;;;;;;;;;5104074;28;1171;-72
2023/03/06 08:32:17;;;;;;;;;;;;;;;;;;5076091;28;1200;-72
2023/03/06 08:34:44;;;;;;;;;;;;;;;;;;5090741;28;1068;-71
2023/03/06 08:37:09;;;;;;;;;;;;;;;;;;5092319;28;829;-71
2023/03/06 08:39:34;;;;;;;;;;;;;;;;;;5091000;28;876;-72
2023/03/06 08:42:00;;;;;;;;;;;;;;;;;;5091634;28;1984;-71
2023/03/06 08:44:25;;;;;;;;;;;;;;;;;;5092037;28;817;-71
2023/03/06 08:46:50;;;;;;;;;;;;;;;;;;5090474;28;1190;-72
2023/03/06 08:49:16;;;;;;;;;;;;;;;;;;5091755;28;836;-72
2023/03/06 08:51:41;;;;;;;;;;;;;;;;;;5090986;28;1245;-72
2023/03/06 08:54:07;;;;;;;;;;;;;;;;;;5092321;28;845;-71
2023/03/06 08:56:33;;;;;;;;;;;;;;;;;;5092456;28;1243;-72
2023/03/06 08:58:59;;;;;;;;;;;;;;;;;;5092556;28;991;-71
2023/03/06 09:01:26;;;;;;;;;;;;;;;;;;5092237;28;1978;-72
2023/03/06 09:03:55;;;;;;;;;;;;;;;;;;5090810;28;1186;-71
2023/03/06 09:06:21;;;;;;;;;;;;;;;;;;5092557;28;868;-71
2023/03/06 09:08:46;;;;;;;;;;;;;;;;;;5091357;28;864;-71
2023/03/06 09:11:13;;;;;;;;;;;;;;;;;;5091051;28;1171;-71
2023/03/06 09:13:38;;;;;;;;;;;;;;;;;;5090718;28;1284;-71
2023/03/06 09:16:04;;;;;;;;;;;;;;;;;;5092040;28;1001;-71
2023/03/06 09:18:29;;;;;;;;;;;;;;;;;;5092129;28;812;-71
2023/03/06 09:20:55;;;;;;;;;;;;;;;;;;5090166;28;1905;-71
2023/03/06 09:23:20;;;;;;;;;;;;;;;;;;5091557;28;935;-71
2023/03/06 09:25:50;;;;;;;;;;;;;;;;;;5091506;28;990;-71
2023/03/06 09:28:16;;;;;;;;;;;;;;;;;;5091692;28;932;-71
2023/03/06 09:30:44;;;;;;;;;;;;;;;;;;5091602;28;1031;-71
2023/03/06 09:33:10;;;;;;;;;;;;;;;;;;5090572;28;1236;-71
2023/03/06 09:35:39;;;;;;;;;;;;;;;;;;5092115;28;887;-71
2023/03/06 09:38:05;;;;;;;;;;;;;;;;;;5091491;28;844;-71
2023/03/06 09:40:49;;;;;;;;;;;;;;;;;;5074456;28;1933;-71
2023/03/06 09:43:18;;;;;;;;;;;;;;;;;;5093965;28;1158;-71
2023/03/06 09:45:44;;;;;;;;;;;;;;;;;;5093704;28;1036;-71
2023/03/06 09:48:12;;;;;;;;;;;;;;;;;;5094889;28;856;-71
2023/03/06 09:50:43;;;;;;;;;;;;;;;;;;5094039;28;1174;-71
2023/03/06 09:53:28;;;;;;;;;;;;;;;;;;5094287;28;941;-71
2023/03/06 09:56:08;;;;;;;;;;;;;;;;;;5093228;28;1212;-71
2023/03/06 09:58:40;;;;;;;;;;;;;;;;;;5095064;28;897;-71
2023/03/06 10:01:11;;;;;;;;;;;;;;;;;;5094958;28;1906;-71
2023/03/06 10:03:53;;;;;;;;;;;;;;;;;;5094852;28;860;-71
2023/03/06 10:06:24;;;;;;;;;;;;;;;;;;5094822;28;809;-71
2023/03/06 10:09:08;;;;;;;;;;;;;;;;;;5093436;28;820;-71
2023/03/06 10:11:38;;;;;;;;;;;;;;;;;;5093738;28;800;-71
2023/03/06 10:14:27;;;;;;;;;;;;;;;;;;5092373;28;1158;-71
2023/03/06 10:16:53;;;;;;;;;;;;;;;;;;5094343;28;859;-71
2023/03/06 10:19:19;;;;;;;;;;;;;;;;;;5092685;28;1179;-71
2023/03/06 10:21:57;;;;;;;;;;;;;;;;;;5094429;28;1914;-71
2023/03/06 10:24:34;;;;;;;;;;;;;;;;;;5094527;28;816;-71
2023/03/06 10:27:15;;;;;;;;;;;;;;;;;;5094237;28;848;-71
2023/03/06 10:29:46;;;;;;;;;;;;;;;;;;5094565;28;892;-71
2023/03/06 10:32:32;;;;;;;;;;;;;;;;;;5094284;28;868;-71
2023/03/06 10:34:59;;;;;;;;;;;;;;;;;;5081618;28;1197;-71
2023/03/06 10:37:28;;;;;;;;;;;;;;;;;;5092945;28;1194;-70
2023/03/06 10:40:02;;;;;;;;;;;;;;;;;;5075611;28;1909;-71
2023/03/06 10:42:28;;;;;;;;;;;;;;;;;;5094475;28;837;-71
2023/03/06 10:45:05;;;;;;;;;;;;;;;;;;5094434;28;884;-71
2023/03/06 10:47:34;;;;;;;;;;;;;;;;;;5093134;28;1277;-71
2023/03/06 10:50:01;;;;;;;;;;;;;;;;;;5092316;28;1187;-70
2023/03/06 10:52:31;;;;;;;;;;;;;;;;;;5092724;28;1158;-71
2023/03/06 10:55:19;;;;;;;;;;;;;;;;;;5092277;28;1435;-70
2023/03/06 10:57:46;;;;;;;;;;;;;;;;;;5086895;28;1318;-70
2023/03/06 11:00:37;;;;;;;;;;;;;;;;;;5094134;28;1910;-70
2023/03/06 11:03:22;;;;;;;;;;;;;;;;;;5089540;28;1505;-70
2023/03/06 11:05:54;;;;;;;;;;;;;;;;;;5093543;28;1246;-69
2023/03/06 11:08:21;;;;;;;;;;;;;;;;;;5093676;28;899;-71
2023/03/06 11:10:53;;;;;;;;;;;;;;;;;;5094489;28;1317;-70
2023/03/06 11:13:23;;;;;;;;;;;;;;;;;;5096947;28;1285;-70
2023/03/06 11:15:56;;;;;;;;;;;;;;;;;;5099168;28;1284;-70
2023/03/06 11:18:41;;;;;;;;;;;;;;;;;;5105425;28;1345;-70
2023/03/06 11:21:45;;;;;;;;;;;;;;;;;;5096086;28;1909;-71
2023/03/06 11:24:33;;;;;;;;;;;;;;;;;;5018277;28;1223;-71
2023/03/06 11:27:01;;;;;;;;;;;;;;;;;;5025515;28;1144;-71
2023/03/06 11:29:33;;;;;;;;;;;;;;;;;;5063644;28;1060;-71
2023/03/06 11:32:03;;;;;;;;;;;;;;;;;;5093008;28;1359;-70
2023/03/06 11:34:40;;;;;;;;;;;;;;;;;;5093489;28;867;-71
2023/03/06 11:37:09;;;;;;;;;;;;;;;;;;5092125;28;1261;-71
2023/03/06 11:39:46;;;;;;;;;;;;;;;;;;5092448;28;1101;-71
2023/03/06 11:42:29;;;;;;;;;;;;;;;;;;5093350;28;868;-71
2023/03/06 11:45:13;;;;;;;;;;;;;;;;;;5093940;28;1139;-70
2023/03/06 11:47:41;;;;;;;;;;;;;;;;;;5093489;28;1006;-71
2023/03/06 11:50:09;;;;;;;;;;;;;;;;;;5091489;28;1034;-71
2023/03/06 11:52:52;;;;;;;;;;;;;;;;;;5092122;28;1027;-71
2023/03/06 11:55:44;;;;;;;;;;;;;;;;;;5091617;28;1187;-70
2023/03/06 11:58:15;;;;;;;;;;;;;;;;;;5067344;28;1259;-71
2023/03/06 12:00:47;;;;;;;;;;;;;;;;;;5091983;28;1894;-72
2023/03/06 12:03:27;;;;;;;;;;;;;;;;;;5091776;28;895;-72
2023/03/06 12:05:55;;;;;;;;;;;;;;;;;;5093158;28;809;-72
2023/03/06 12:08:30;;;;;;;;;;;;;;;;;;5092817;28;895;-72
2023/03/06 12:11:04;;;;;;;;;;;;;;;;;;5093325;28;958;-72
2023/03/06 12:13:48;;;;;;;;;;;;;;;;;;5091574;28;1416;-72
2023/03/06 12:16:32;;;;;;;;;;;;;;;;;;5092487;28;930;-72
2023/03/06 12:19:08;;;;;;;;;;;;;;;;;;5093002;28;966;-72
2023/03/06 12:21:39;;;;;;;;;;;;;;;;;;5092956;28;1967;-72
2023/03/06 12:24:17;;;;;;;;;;;;;;;;;;5092388;28;939;-72
2023/03/06 12:27:01;;;;;;;;;;;;;;;;;;5091139;28;1352;-72
2023/03/06 12:29:38;;;;;;;;;;;;;;;;;;5093030;28;971;-72
2023/03/06 12:32:13;;;;;;;;;;;;;;;;;;5092676;28;899;-72
2023/03/06 12:34:41;;;;;;;;;;;;;;;;;;5092776;28;884;-72
2023/03/06 12:37:16;;;;;;;;;;;;;;;;;;5091384;28;1187;-72
2023/03/06 12:39:52;;;;;;;;;;;;;;;;;;5092592;28;991;-72
2023/03/06 12:42:17;;;;;;;;;;;;;;;;;;5090777;28;1141;-72
2023/03/06 12:44:42;;;;;;;;;;;;;;;;;;5092564;28;983;-72
2023/03/06 12:47:09;;;;;;;;;;;;;;;;;;5092438;28;817;-71
2023/03/06 12:49:37;;;;;;;;;;;;;;;;;;5092550;28;900;-72
2023/03/06 12:52:04;;;;;;;;;;;;;;;;;;5091207;28;967;-71
2023/03/06 12:54:32;;;;;;;;;;;;;;;;;;5091192;28;1036;-71
2023/03/06 12:56:59;;;;;;;;;;;;;;;;;;5092106;28;1191;-71
2023/03/06 12:59:38;;;;;;;;;;;;;;;;;;5091148;28;1253;-71
2023/03/06 13:02:09;;;;;;;;;;;;;;;;;;5092124;28;1898;-71
2023/03/06 13:04:50;;;;;;;;;;;;;;;;;;5092335;28;927;-71
2023/03/06 13:07:26;;;;;;;;;;;;;;;;;;5092023;28;987;-71
2023/03/06 13:10:06;;;;;;;;;;;;;;;;;;5091106;28;1104;-71
2023/03/06 13:12:45;;;;;;;;;;;;;;;;;;5092872;28;907;-71
2023/03/06 13:15:19;;;;;;;;;;;;;;;;;;5092669;28;812;-71
2023/03/06 13:17:44;;;;;;;;;;;;;;;;;;5096031;28;832;-71
2023/03/06 13:20:13;;;;;;;;;;;;;;;;;;5094210;28;1898;-71
2023/03/06 13:22:38;;;;;;;;;;;;;;;;;;5094667;28;1297;-71
2023/03/06 13:25:16;;;;;;;;;;;;;;;;;;5094510;28;1254;-71
2023/03/06 13:27:53;;;;;;;;;;;;;;;;;;5095467;28;844;-71
2023/03/06 13:30:45;;;;;;;;;;;;;;;;;;5094029;28;1194;-72
2023/03/06 13:33:23;;;;;;;;;;;;;;;;;;5093149;28;1111;-70
2023/03/06 13:35:56;;;;;;;;;;;;;;;;;;5073970;28;1802;-71
2023/03/06 13:38:28;;;;;;;;;;;;;;;;;;5107561;28;1154;-71
2023/03/06 13:41:13;;;;;;;;;;;;;;;;;;5074909;28;1909;-71
2023/03/06 13:43:40;;;;;;;;;;;;;;;;;;5075113;28;1128;-70
2023/03/06 13:46:17;;;;;;;;;;;;;;;;;;5107796;28;1320;-71
2023/03/06 13:48:42;;;;;;;;;;;;;;;;;;5075441;28;1000;-71
2023/03/06 13:51:23;;;;;;;;;;;;;;;;;;5075343;28;1008;-70
2023/03/06 13:54:09;;;;;;;;;;;;;;;;;;5074311;28;1314;-71
2023/03/06 13:56:54;;;;;;;;;;;;;;;;;;5072742;28;1265;-70
2023/03/06 13:59:19;;;;;;;;;;;;;;;;;;5073339;28;1348;-70
2023/03/06 14:01:59;;;;;;;;;;;;;;;;;;5075224;28;1918;-70
2023/03/06 14:04:43;;;;;;;;;;;;;;;;;;5073555;28;1246;-70
2023/03/06 14:07:11;;;;;;;;;;;;;;;;;;5075397;28;852;-70
2023/03/06 14:09:47;;;;;;;;;;;;;;;;;;5074964;28;837;-70
2023/03/06 14:12:35;;;;;;;;;;;;;;;;;;5074475;28;849;-70
2023/03/06 14:15:04;;;;;;;;;;;;;;;;;;5081994;28;1112;-70
2023/03/06 14:17:34;;;;;;;;;;;;;;;;;;5073392;28;1222;-70
2023/03/06 14:20:11;;;;;;;;;;;;;;;;;;5074269;28;1943;-70
2023/03/06 14:22:36;;;;;;;;;;;;;;;;;;5073315;28;1008;-71
2023/03/06 14:25:05;;;;;;;;;;;;;;;;;;5073961;28;1195;-70
2023/03/06 14:27:49;;;;;;;;;;;;;;;;;;5072488;28;1054;-70
2023/03/06 14:30:16;;;;;;;;;;;;;;;;;;5073796;28;917;-70
2023/03/06 14:32:41;;;;;;;;;;;;;;;;;;5072806;28;1191;-70
2023/03/06 14:35:18;;;;;;;;;;;;;;;;;;5107005;28;850;-71
2023/03/06 14:37:46;;;;;;;;;;;;;;;;;;5074793;28;821;-71
2023/03/06 14:40:17;;;;;;;;;;;;;;;;;;5072859;28;1905;-71
2023/03/06 14:42:42;;;;;;;;;;;;;;;;;;5074126;28;860;-71
2023/03/06 14:45:14;;;;;;;;;;;;;;;;;;5074464;28;849;-71
2023/03/06 14:47:40;;;;;;;;;;;;;;;;;;5074264;28;876;-71
2023/03/06 14:50:21;;;;;;;;;;;;;;;;;;5106933;28;809;-71
2023/03/06 14:52:48;;;;;;;;;;;;;;;;;;5073108;28;1285;-71
2023/03/06 14:55:18;;;;;;;;;;;;;;;;;;5073919;28;1087;-71
2023/03/06 14:57:44;;;;;;;;;;;;;;;;;;5073755;28;868;-71
2023/03/06 15:00:16;;;;;;;;;;;;;;;;;;5073752;28;1956;-71
2023/03/06 15:02:42;;;;;;;;;;;;;;;;;;5072275;28;1178;-71
2023/03/06 15:05:16;;;;;;;;;;;;;;;;;;5089553;28;1167;-72
2023/03/06 15:07:42;;;;;;;;;;;;;;;;;;5073939;28;880;-69
2023/03/06 15:10:18;;;;;;;;;;;;;;;;;;5106116;28;1182;-72
2023/03/06 15:12:43;;;;;;;;;;;;;;;;;;5106490;28;1433;-69
2023/03/06 15:15:09;;;;;;;;;;;;;;;;;;5089780;28;1176;-72
2023/03/06 15:17:45;;;;;;;;;;;;;;;;;;5072641;28;1222;-71
2023/03/06 15:20:31;;;;;;;;;;;;;;;;;;5073734;28;1953;-72
2023/03/06 15:22:56;;;;;;;;;;;;;;;;;;5052685;28;1052;-70
2023/03/06 15:25:29;;;;;;;;;;;;;;;;;;5106480;28;856;-72
2023/03/06 15:27:56;;;;;;;;;;;;;;;;;;5072700;28;1111;-69
2023/03/06 15:30:31;;;;;;;;;;;;;;;;;;5073963;28;813;-71
2023/03/06 15:33:18;;;;;;;;;;;;;;;;;;5072524;28;1237;-71
2023/03/06 15:35:57;;;;;;;;;;;;;;;;;;5072246;28;1281;-71
2023/03/06 15:38:31;;;;;;;;;;;;;;;;;;5070826;28;1432;-71
2023/03/06 15:40:58;;;;;;;;;;;;;;;;;;5073365;28;2010;-70
2023/03/06 15:43:31;;;;;;;;;;;;;;;;;;5073869;28;987;-71
2023/03/06 15:45:58;;;;;;;;;;;;;;;;;;5073639;28;955;-70
2023/03/06 15:48:24;;;;;;;;;;;;;;;;;;5074183;28;864;-70
2023/03/06 15:50:49;;;;;;;;;;;;;;;;;;5074374;28;889;-70
2023/03/06 15:53:15;;;;;;;;;;;;;;;;;;5089012;28;1201;-70
2023/03/06 15:55:40;;;;;;;;;;;;;;;;;;5073515;28;1355;-70
2023/03/06 15:58:06;;;;;;;;;;;;;;;;;;5074569;28;832;-69
2023/03/06 16:00:33;;;;;;;;;;;;;;;;;;5106654;28;1902;-69
2023/03/06 16:02:59;;;;;;;;;;;;;;;;;;5095926;28;1196;-69
2023/03/06 16:05:26;;;;;;;;;;;;;;;;;;5093036;28;1349;-68
2023/03/06 16:07:51;;;;;;;;;;;;;;;;;;5092982;28;1150;-69
2023/03/06 16:10:18;;;;;;;;;;;;;;;;;;5093458;28;987;-69
2023/03/06 16:12:45;;;;;;;;;;;;;;;;;;5092101;28;1180;-70
2023/03/06 16:15:18;;;;;;;;;;;;;;;;;;5091617;28;1241;-70
2023/03/06 16:17:44;;;;;;;;;;;;;;;;;;5091938;28;1177;-70
2023/03/06 16:20:13;;;;;;;;;;;;;;;;;;5091614;28;1905;-70
2023/03/06 16:22:38;;;;;;;;;;;;;;;;;;5093035;28;824;-70
2023/03/06 16:25:04;;;;;;;;;;;;;;;;;;5093298;28;896;-71
2023/03/06 16:27:29;;;;;;;;;;;;;;;;;;5091916;28;1265;-71
2023/03/06 16:29:54;;;;;;;;;;;;;;;;;;5091636;28;1289;-70
2023/03/06 16:32:20;;;;;;;;;;;;;;;;;;5092338;28;1205;-70
2023/03/06 16:34:45;;;;;;;;;;;;;;;;;;5075038;28;1186;-70
2023/03/06 16:37:11;;;;;;;;;;;;;;;;;;5093253;28;872;-72
2023/03/06 16:39:37;;;;;;;;;;;;;;;;;;5091948;28;1178;-71
2023/03/06 16:42:02;;;;;;;;;;;;;;;;;;5093150;28;2044;-71
2023/03/06 16:44:27;;;;;;;;;;;;;;;;;;5093063;28;804;-70
2023/03/06 16:46:53;;;;;;;;;;;;;;;;;;5092945;28;986;-71
2023/03/06 16:49:20;;;;;;;;;;;;;;;;;;5093539;28;963;-71
2023/03/06 16:51:45;;;;;;;;;;;;;;;;;;5108647;28;1395;-71
2023/03/06 16:54:11;;;;;;;;;;;;;;;;;;5117839;28;887;-70
2023/03/06 16:56:36;;;;;;;;;;;;;;;;;;5117476;28;1083;-70
2023/03/06 16:59:02;;;;;;;;;;;;;;;;;;5116978;28;1474;-71
2023/03/06 17:01:27;;;;;;;;;;;;;;;;;;5098829;28;1964;-71
2023/03/06 17:03:53;;;;;;;;;;;;;;;;;;5115096;28;1169;-71
2023/03/06 17:06:19;;;;;;;;;;;;;;;;;;5115692;28;914;-72
2023/03/06 17:08:45;;;;;;;;;;;;;;;;;;5117391;28;863;-71
2023/03/06 17:11:11;;;;;;;;;;;;;;;;;;5115793;28;1139;-71
2023/03/06 17:13:37;;;;;;;;;;;;;;;;;;5116024;28;1047;-71
2023/03/06 17:16:02;;;;;;;;;;;;;;;;;;5099115;28;1152;-71
2023/03/06 17:18:28;;;;;;;;;;;;;;;;;;5115818;28;1150;-71
2023/03/06 17:20:54;;;;;;;;;;;;;;;;;;5115865;28;1905;-71